createdAt,value
2019-04-11T00:00:58.182Z,94.0200
2019-04-11T00:02:01.221Z,94.0169
2019-04-11T00:03:05.057Z,95.0362
2019-04-11T00:04:08.286Z,94.9172
2019-04-11T00:05:11.172Z,94.5510
2019-04-11T00:06:15.246Z,93.6629
2019-04-11T00:07:18.272Z,94.2901
2019-04-11T00:08:21.730Z,94.1070
2019-04-11T00:09:24.887Z,95.2026
2019-04-11T00:10:29.188Z,94.5876
2019-04-11T00:11:32.196Z,94.2214
2019-04-11T00:12:35.191Z,95.5535
2019-04-11T00:13:39.121Z,95.0240
2019-04-11T00:14:42.214Z,93.7682
2019-04-11T00:15:45.187Z,95.4452
2019-04-11T00:16:48.184Z,95.6817
2019-04-11T00:17:52.311Z,92.1309
2019-04-11T00:18:54.743Z,93.4539
2019-04-11T00:19:56.192Z,92.9458
2019-04-11T00:21:00.231Z,92.8985
2019-04-11T00:22:03.506Z,92.6619
2019-04-11T00:23:08.048Z,94.3877
2019-04-11T00:24:12.458Z,94.6563
2019-04-11T00:25:15.670Z,93.7377
2019-04-11T00:26:18.174Z,94.2672
2019-04-11T00:27:21.261Z,94.4289
2019-04-11T00:28:24.181Z,93.7331
2019-04-11T00:29:28.123Z,93.9757
2019-04-11T00:30:32.290Z,95.3521
2019-04-11T00:31:35.181Z,93.3974
2019-04-11T00:32:38.169Z,93.4752
2019-04-11T00:33:42.398Z,93.0877
2019-04-11T00:34:45.194Z,94.3877
2019-04-11T00:35:48.063Z,92.0699
2019-04-11T00:36:51.213Z,92.8069
2019-04-11T00:37:54.181Z,92.4422
2019-04-11T00:38:57.335Z,93.5851
2019-04-11T00:40:01.808Z,92.4041
2019-04-11T00:41:04.301Z,92.8206
2019-04-11T00:42:07.244Z,92.6833
2019-04-11T00:43:11.372Z,92.2362
2019-04-11T00:44:14.678Z,91.9417
2019-04-11T00:45:19.215Z,91.3619
2019-04-11T00:46:22.470Z,92.7672
2019-04-11T00:47:25.198Z,94.2092
2019-04-11T00:48:28.227Z,91.4900
2019-04-11T00:49:31.185Z,92.4788
2019-04-11T00:50:35.011Z,91.4977
2019-04-11T00:51:38.196Z,91.3283
2019-04-11T00:52:41.304Z,90.5470
2019-04-11T00:53:44.498Z,91.7357
2019-04-11T00:54:47.198Z,91.1223
2019-04-11T00:55:51.248Z,90.6325
2019-04-11T00:56:54.706Z,91.8013
2019-04-11T00:57:57.213Z,92.1294
2019-04-11T00:59:00.282Z,91.2139
2019-04-11T01:00:05.219Z,90.1442
2019-04-11T01:01:09.159Z,92.2438
2019-04-11T01:02:12.176Z,92.5566
2019-04-11T01:03:15.206Z,90.5470
2019-04-11T01:04:18.189Z,91.4855
2019-04-11T01:05:21.370Z,91.9890
2019-04-11T01:06:24.194Z,90.1991
2019-04-11T01:07:27.210Z,90.9819
2019-04-11T01:08:31.279Z,90.6783
2019-04-11T01:09:34.720Z,91.1604
2019-04-11T01:10:37.201Z,89.9733
2019-04-11T01:11:40.451Z,90.6508
2019-04-11T01:12:43.204Z,90.0420
2019-04-11T01:13:50.920Z,91.2383
2019-04-11T01:14:55.225Z,90.4601
2019-04-11T01:15:58.211Z,90.3716
2019-04-11T01:17:01.193Z,90.0008
2019-04-11T01:18:04.204Z,89.2363
2019-04-11T01:19:07.306Z,89.5613
2019-04-11T01:20:11.142Z,89.1173
2019-04-11T01:21:14.187Z,91.4809
2019-04-11T01:22:16.220Z,89.7047
2019-04-11T01:23:20.685Z,89.4606
2019-04-11T01:24:23.872Z,88.5695
2019-04-11T01:25:27.201Z,89.0593
2019-04-11T01:26:30.170Z,89.5064
2019-04-11T01:27:34.167Z,88.4855
2019-04-11T01:28:37.190Z,88.9952
2019-04-11T01:29:40.190Z,89.0089
2019-04-11T01:30:42.189Z,88.8945
2019-04-11T01:31:46.148Z,90.2998
2019-04-11T01:32:49.219Z,90.7027
2019-04-11T01:33:53.889Z,89.8817
2019-04-11T01:35:07.179Z,89.1310
2019-04-11T01:36:11.181Z,88.5588
2019-04-11T01:37:15.530Z,88.7007
2019-04-11T01:38:18.205Z,88.9387
2019-04-11T01:39:23.178Z,89.6025
2019-04-11T01:40:26.177Z,90.4494
2019-04-11T01:41:29.258Z,87.8370
2019-04-11T01:42:33.357Z,89.3339
2019-04-11T01:43:36.187Z,88.1743
2019-04-11T01:44:39.184Z,88.5969
2019-04-11T01:45:49.664Z,87.8080
2019-04-11T01:46:52.197Z,90.2068
2019-04-11T01:47:55.586Z,89.0547
2019-04-11T01:48:58.192Z,90.6981
2019-04-11T01:50:01.168Z,91.7098
2019-04-11T01:51:05.303Z,88.6091
2019-04-11T01:52:08.192Z,87.3884
2019-04-11T01:53:11.200Z,90.3181
2019-04-11T01:54:15.251Z,87.5608
2019-04-11T01:55:18.521Z,91.5572
2019-04-11T01:56:21.174Z,88.8838
2019-04-11T01:57:24.192Z,89.5247
2019-04-11T01:58:27.184Z,89.2790
2019-04-11T01:59:31.196Z,89.3736
2019-04-11T02:00:34.419Z,87.9591
2019-04-11T02:01:37.024Z,88.3040
2019-04-11T02:02:40.188Z,88.1987
2019-04-11T02:03:44.237Z,88.8426
2019-04-11T02:04:48.053Z,86.1524
2019-04-11T02:05:51.588Z,87.2038
2019-04-11T02:06:54.184Z,86.5278
2019-04-11T02:07:58.732Z,88.6686
2019-04-11T02:09:01.931Z,89.4987
2019-04-11T02:10:05.420Z,89.4560
2019-04-11T02:11:09.759Z,89.9092
2019-04-11T02:12:12.185Z,90.9545
2019-04-11T02:13:15.413Z,88.3223
2019-04-11T02:14:19.959Z,88.0980
2019-04-11T02:15:25.205Z,85.5421
2019-04-11T02:16:29.283Z,85.7069
2019-04-11T02:17:32.858Z,86.0655
2019-04-11T02:18:37.299Z,86.7018
2019-04-11T02:19:41.228Z,87.6661
2019-04-11T02:20:45.189Z,88.4718
2019-04-11T02:21:49.644Z,88.1422
2019-04-11T02:22:52.847Z,85.5329
2019-04-11T02:23:56.337Z,85.9541
2019-04-11T02:25:00.505Z,86.5461
2019-04-11T02:26:03.172Z,86.9718
2019-04-11T02:27:06.506Z,86.5736
2019-04-11T02:28:09.164Z,87.4006
2019-04-11T02:29:13.251Z,86.9016
2019-04-11T02:30:20.020Z,87.4937
2019-04-11T02:31:26.161Z,87.0390
2019-04-11T02:32:29.407Z,86.6453
2019-04-11T02:33:32.959Z,86.5003
2019-04-11T02:34:37.085Z,85.2399
2019-04-11T02:35:42.334Z,86.6148
2019-04-11T02:36:48.918Z,87.6799
2019-04-11T02:37:52.219Z,86.8345
2019-04-11T02:38:59.004Z,85.8686
2019-04-11T02:40:03.709Z,86.7246
2019-04-11T02:41:10.574Z,87.4067
2019-04-11T02:42:16.920Z,86.9856
2019-04-11T02:43:20.518Z,84.7471
2019-04-11T02:44:45.501Z,84.7608
2019-04-11T02:45:45.208Z,85.6809
2019-04-11T02:46:48.238Z,85.0629
2019-04-11T02:47:51.062Z,85.2995
2019-04-11T02:48:56.702Z,88.6290
2019-04-11T02:50:01.195Z,85.9098
2019-04-11T02:51:06.927Z,87.3289
2019-04-11T02:52:13.371Z,85.4383
2019-04-11T02:53:18.373Z,86.0548
2019-04-11T02:54:44.646Z,85.8900
2019-04-11T02:55:51.865Z,84.7181
2019-04-11T02:56:55.178Z,84.5731
2019-04-11T02:57:59.757Z,84.1184
2019-04-11T02:59:05.450Z,85.3269
2019-04-11T03:00:11.090Z,86.2165
2019-04-11T03:01:17.893Z,85.3880
2019-04-11T03:02:21.504Z,86.2013
2019-04-11T03:03:25.384Z,85.5650
2019-04-11T03:04:28.946Z,85.0431
2019-04-11T03:05:34.521Z,84.9287
2019-04-11T03:06:37.206Z,86.3310
2019-04-11T03:07:42.336Z,85.2171
2019-04-11T03:08:46.487Z,85.6764
2019-04-11T03:09:53.372Z,85.9190
2019-04-11T03:10:57.638Z,83.9643
2019-04-11T03:12:00.782Z,84.2329
2019-04-11T03:13:04.587Z,85.0401
2019-04-11T03:14:09.635Z,86.5919
2019-04-11T03:15:27.179Z,85.1774
2019-04-11T03:16:32.858Z,84.8524
2019-04-11T03:17:36.779Z,86.5721
2019-04-11T03:18:54.806Z,85.7221
2019-04-11T03:20:04.507Z,84.7913
2019-04-11T03:21:02.775Z,86.5232
2019-04-11T03:22:05.647Z,86.3111
2019-04-11T03:23:10.799Z,84.5960
2019-04-11T03:24:17.671Z,84.7746
2019-04-11T03:25:22.521Z,85.7755
2019-04-11T03:26:25.186Z,85.4932
2019-04-11T03:27:30.256Z,84.9027
2019-04-11T03:28:35.591Z,84.9851
2019-04-11T03:29:40.670Z,84.9027
2019-04-11T03:31:07.172Z,84.0925
2019-04-11T03:32:33.501Z,84.3626
2019-04-11T03:37:53.591Z,85.5558
2019-04-11T03:39:00.315Z,85.4017
2019-04-11T03:40:09.697Z,85.0614
2019-04-11T03:41:12.786Z,87.7211
2019-04-11T03:42:17.223Z,84.7135
2019-04-11T03:43:24.092Z,86.3127
2019-04-11T03:44:25.443Z,87.4922
2019-04-11T03:45:49.698Z,85.9648
2019-04-11T03:46:49.255Z,85.4612
2019-04-11T03:48:00.912Z,84.7746
2019-04-11T03:49:01.268Z,84.6815
2019-04-11T03:50:06.055Z,86.1051
2019-04-11T03:51:20.514Z,84.2008
2019-04-11T03:52:25.664Z,86.3935
2019-04-11T03:53:29.908Z,84.0314
2019-04-11T03:54:36.267Z,85.5299
2019-04-11T03:55:39.189Z,84.8600
2019-04-11T03:56:43.354Z,85.9037
2019-04-11T03:57:46.966Z,86.1799
2019-04-11T03:58:50.396Z,85.9510
2019-04-11T03:59:54.545Z,87.6844
2019-04-11T04:01:03.244Z,83.9078
2019-04-11T04:02:07.639Z,83.8865
2019-04-11T04:03:12.099Z,85.1225
2019-04-11T04:04:19.320Z,83.9673
2019-04-11T04:05:26.182Z,86.8528
2019-04-11T04:06:28.832Z,87.5029
2019-04-11T04:07:31.983Z,86.1143
2019-04-11T04:08:36.362Z,85.7023
2019-04-11T04:09:43.801Z,86.1158
2019-04-11T04:10:47.718Z,85.6107
2019-04-11T04:11:51.173Z,86.4042
2019-04-11T04:12:55.684Z,86.1418
2019-04-11T04:13:59.891Z,86.5721
2019-04-11T04:15:06.493Z,87.2404
2019-04-11T04:16:21.652Z,86.9429
2019-04-11T04:17:21.375Z,87.3045
2019-04-11T04:18:25.175Z,89.7414
2019-04-11T04:19:30.409Z,88.8334
2019-04-11T04:20:35.287Z,91.3069
2019-04-11T04:21:38.846Z,87.8538
2019-04-11T04:22:44.057Z,89.3370
2019-04-11T04:23:49.621Z,88.6000
2019-04-11T04:24:53.999Z,88.2612
2019-04-11T04:26:01.221Z,87.8950
2019-04-11T04:27:07.167Z,87.2541
2019-04-11T04:28:13.661Z,90.2541
2019-04-11T04:29:17.943Z,91.1223
2019-04-11T04:30:21.908Z,87.5929
2019-04-11T04:31:26.548Z,89.2454
2019-04-11T04:32:30.410Z,90.2403
2019-04-11T04:33:36.334Z,89.7688
2019-04-11T04:34:42.093Z,88.5176
2019-04-11T04:35:45.190Z,88.5451
2019-04-11T04:36:49.710Z,89.1493
2019-04-11T04:37:52.202Z,89.3339
2019-04-11T04:38:56.930Z,89.5933
2019-04-11T04:40:21.152Z,88.6000
2019-04-11T04:41:22.472Z,88.1056
2019-04-11T04:42:26.405Z,88.3543
2019-04-11T04:43:27.536Z,87.2740
2019-04-11T04:44:33.408Z,87.3457
2019-04-11T04:45:55.146Z,86.8421
2019-04-11T04:46:58.085Z,87.5288
2019-04-11T04:47:56.588Z,87.4571
2019-04-11T04:49:00.186Z,87.0024
2019-04-11T04:50:06.177Z,87.5029
2019-04-11T04:51:11.414Z,87.0222
2019-04-11T04:52:16.457Z,90.7927
2019-04-11T04:53:20.421Z,88.8243
2019-04-11T04:54:25.184Z,89.4530
2019-04-11T04:55:30.292Z,86.7613
2019-04-11T04:56:34.942Z,87.0069
2019-04-11T04:57:40.495Z,87.1412
2019-04-11T04:58:44.455Z,87.9500
2019-04-11T04:59:48.795Z,86.7735
2019-04-11T05:00:54.265Z,88.3757
2019-04-11T05:01:59.396Z,89.7810
2019-04-11T05:03:02.521Z,87.9408
2019-04-11T05:04:06.752Z,88.1697
2019-04-11T05:05:09.571Z,88.1895
2019-04-11T05:06:14.324Z,87.3884
2019-04-11T05:07:19.266Z,86.9947
2019-04-11T05:08:22.862Z,87.0939
2019-04-11T05:09:26.203Z,87.1229
2019-04-11T05:10:30.666Z,88.1209
2019-04-11T05:11:33.955Z,87.1458
2019-04-11T05:12:38.626Z,90.0938
2019-04-11T05:13:45.307Z,89.1264
2019-04-11T05:14:51.799Z,87.6616
2019-04-11T05:16:06.857Z,88.3543
2019-04-11T05:17:04.332Z,86.9520
2019-04-11T05:18:06.324Z,87.9652
2019-04-11T05:19:09.180Z,87.4830
2019-04-11T05:20:14.057Z,90.1198
2019-04-11T05:21:17.192Z,88.7205
2019-04-11T05:22:20.196Z,87.7165
2019-04-11T05:23:23.534Z,86.8238
2019-04-11T05:24:26.432Z,88.8304
2019-04-11T05:25:30.825Z,87.0451
2019-04-11T05:26:33.388Z,86.2852
2019-04-11T05:27:36.193Z,86.1280
2019-04-11T05:28:39.397Z,85.0217
2019-04-11T05:29:42.194Z,85.4551
2019-04-11T05:30:44.984Z,86.6514
2019-04-11T05:31:49.223Z,85.9770
2019-04-11T05:32:52.199Z,85.5283
2019-04-11T05:33:56.072Z,85.8320
2019-04-11T05:34:59.205Z,85.5741
2019-04-11T05:36:02.187Z,86.4668
2019-04-11T05:37:05.206Z,85.5512
2019-04-11T05:38:08.415Z,86.7018
2019-04-11T05:39:11.206Z,85.4368
2019-04-11T05:40:14.849Z,85.3056
2019-04-11T05:41:17.355Z,88.8792
2019-04-11T05:42:22.754Z,86.2074
2019-04-11T05:43:31.884Z,86.0288
2019-04-11T05:44:38.181Z,86.3767
2019-04-11T05:45:43.189Z,86.7338
2019-04-11T05:46:52.408Z,86.5171
2019-04-11T05:47:56.355Z,86.1280
2019-04-11T05:49:00.740Z,86.7338
2019-04-11T05:50:13.542Z,86.3951
2019-04-11T05:51:21.338Z,87.3182
2019-04-11T05:52:27.387Z,88.4642
2019-04-11T05:53:35.323Z,86.7796
2019-04-11T05:54:41.812Z,89.4072
2019-04-11T05:55:47.560Z,86.9352
2019-04-11T05:56:54.735Z,85.3407
2019-04-11T05:57:58.639Z,86.1112
2019-04-11T05:59:01.917Z,86.8376
2019-04-11T06:00:05.541Z,87.3869
2019-04-11T06:01:10.040Z,85.3223
2019-04-11T06:02:15.103Z,85.8503
2019-04-11T06:03:18.197Z,86.1387
2019-04-11T06:04:24.087Z,86.2165
2019-04-11T06:05:32.459Z,87.5074
2019-04-11T06:06:40.178Z,86.1326
2019-04-11T06:07:46.994Z,85.7176
2019-04-11T06:08:50.168Z,85.3086
2019-04-11T06:09:53.190Z,86.5324
2019-04-11T06:10:56.687Z,84.9577
2019-04-11T06:11:59.209Z,87.1260
2019-04-11T06:13:02.501Z,85.4093
2019-04-11T06:14:05.889Z,85.9281
2019-04-11T06:15:11.548Z,86.2196
2019-04-11T06:16:14.618Z,85.3971
2019-04-11T06:17:18.364Z,86.4485
2019-04-11T06:18:27.859Z,86.4408
2019-04-11T06:19:30.348Z,85.5940
2019-04-11T06:20:33.449Z,85.5833
2019-04-11T06:21:36.193Z,85.3742
2019-04-11T06:22:40.254Z,84.5914
2019-04-11T06:23:43.468Z,84.5533
2019-04-11T06:24:46.207Z,84.8554
2019-04-11T06:25:49.283Z,84.8875
2019-04-11T06:26:52.190Z,85.4200
2019-04-11T06:27:55.812Z,85.0538
2019-04-11T06:28:59.101Z,86.1463
2019-04-11T06:30:09.663Z,85.0996
2019-04-11T06:31:33.862Z,85.9190
2019-04-11T06:32:37.366Z,85.2827
2019-04-11T06:33:41.222Z,84.8600
2019-04-11T06:34:44.191Z,85.3269
2019-04-11T06:35:48.267Z,84.7089
2019-04-11T06:36:51.214Z,85.4185
2019-04-11T06:37:54.313Z,86.0563
2019-04-11T06:38:57.198Z,84.5441
2019-04-11T06:40:00.853Z,85.0904
2019-04-11T06:41:06.179Z,85.0294
2019-04-11T06:42:09.203Z,84.3809
2019-04-11T06:43:12.208Z,84.2664
2019-04-11T06:44:16.365Z,85.6016
2019-04-11T06:45:19.709Z,85.5116
2019-04-11T06:46:22.168Z,84.4114
2019-04-11T06:47:25.182Z,85.0248
2019-04-11T06:48:28.215Z,85.3132
2019-04-11T06:49:31.184Z,86.2715
2019-04-11T06:50:35.380Z,84.1382
2019-04-11T06:51:38.491Z,85.3834
2019-04-11T06:52:41.284Z,84.0833
2019-04-11T06:53:44.211Z,85.4871
2019-04-11T06:54:47.518Z,84.4083
2019-04-11T06:55:50.954Z,85.2186
2019-04-11T06:56:54.181Z,84.0146
2019-04-11T06:57:58.414Z,84.9577
2019-04-11T06:59:01.728Z,84.4633
2019-04-11T07:00:05.201Z,84.3626
2019-04-11T07:01:08.269Z,84.2847
2019-04-11T07:02:16.522Z,84.8386
2019-04-11T07:03:23.141Z,84.1505
2019-04-11T07:04:27.385Z,85.3681
2019-04-11T07:05:30.903Z,84.2252
2019-04-11T07:06:34.262Z,83.6469
2019-04-11T07:07:37.749Z,84.8417
2019-04-11T07:08:40.613Z,84.0055
2019-04-11T07:09:43.209Z,84.4083
2019-04-11T07:10:46.726Z,85.1667
2019-04-11T07:11:49.198Z,84.3397
2019-04-11T07:12:54.230Z,85.0721
2019-04-11T07:13:59.182Z,84.1047
2019-04-11T07:15:02.572Z,84.3702
2019-04-11T07:16:05.962Z,84.0101
2019-04-11T07:17:10.395Z,83.9963
2019-04-11T07:18:14.202Z,85.1484
2019-04-11T07:19:17.689Z,84.6281
2019-04-11T07:20:20.756Z,84.1611
2019-04-11T07:21:23.328Z,84.9989
2019-04-11T07:22:26.242Z,84.1245
2019-04-11T07:23:29.198Z,85.1713
2019-04-11T07:24:32.357Z,84.6723
2019-04-11T07:25:35.294Z,84.3015
2019-04-11T07:26:38.234Z,83.5569
2019-04-11T07:27:41.181Z,83.7751
2019-04-11T07:28:44.182Z,84.1978
2019-04-11T07:29:47.204Z,83.7476
2019-04-11T07:30:50.285Z,84.2924
2019-04-11T07:31:53.206Z,83.8758
2019-04-11T07:32:56.251Z,84.1276
2019-04-11T07:34:00.528Z,85.0843
2019-04-11T07:35:04.651Z,84.8417
2019-04-11T07:36:08.354Z,86.3890
2019-04-11T07:37:12.588Z,84.7562
2019-04-11T07:38:16.290Z,85.3468
2019-04-11T07:39:18.183Z,83.8727
2019-04-11T07:40:20.241Z,84.5411
2019-04-11T07:41:23.948Z,84.6876
2019-04-11T07:42:27.285Z,84.7013
2019-04-11T07:43:31.292Z,85.2323
2019-04-11T07:44:34.204Z,84.4862
2019-04-11T07:45:38.519Z,85.0767
2019-04-11T07:46:43.227Z,85.2094
2019-04-11T07:47:46.194Z,85.6840
2019-04-11T07:48:50.210Z,85.3193
2019-04-11T07:49:55.170Z,85.6657
2019-04-11T07:50:59.743Z,85.1575
2019-04-11T07:52:02.530Z,85.3605
2019-04-11T07:53:05.189Z,85.6199
2019-04-11T07:54:09.269Z,84.6906
2019-04-11T07:55:13.138Z,85.6153
2019-04-11T07:56:16.483Z,84.3748
2019-04-11T07:57:19.387Z,85.5421
2019-04-11T07:58:22.183Z,84.2237
2019-04-11T07:59:25.229Z,85.1179
2019-04-11T08:00:38.600Z,85.2964
2019-04-11T08:01:36.297Z,84.6632
2019-04-11T08:02:39.881Z,83.9857
2019-04-11T08:03:43.191Z,85.4368
2019-04-11T08:04:47.300Z,85.3376
2019-04-11T08:05:50.285Z,84.2344
2019-04-11T08:06:53.999Z,83.8270
2019-04-11T08:07:57.410Z,85.0202
2019-04-11T08:09:01.303Z,83.8804
2019-04-11T08:10:04.195Z,84.6357
2019-04-11T08:11:07.197Z,83.9872
2019-04-11T08:12:10.176Z,84.4938
2019-04-11T08:13:14.122Z,85.0721
2019-04-11T08:14:18.325Z,84.2481
2019-04-11T08:15:21.668Z,84.0330
2019-04-11T08:16:24.180Z,84.6922
2019-04-11T08:17:35.524Z,85.2644
2019-04-11T08:18:35.189Z,83.7568
2019-04-11T08:19:38.630Z,85.1911
2019-04-11T08:20:41.563Z,83.6484
2019-04-11T08:21:44.425Z,83.8590
2019-04-11T08:22:47.561Z,83.5050
2019-04-11T08:23:50.179Z,83.4516
2019-04-11T08:24:53.254Z,83.2532
2019-04-11T08:25:56.180Z,83.6027
2019-04-11T08:26:59.186Z,83.0076
2019-04-11T08:28:04.362Z,84.6876
2019-04-11T08:29:12.312Z,83.8529
2019-04-11T08:30:17.243Z,83.9414
2019-04-11T08:31:21.551Z,83.4775
2019-04-11T08:32:25.446Z,84.9149
2019-04-11T08:33:28.796Z,83.5874
2019-04-11T08:34:31.463Z,82.5208
2019-04-11T08:35:34.586Z,83.4287
2019-04-11T08:36:37.993Z,83.9673
2019-04-11T08:37:41.179Z,82.4933
2019-04-11T08:38:44.696Z,82.2873
2019-04-11T08:39:49.078Z,83.4730
2019-04-11T08:40:53.262Z,81.8997
2019-04-11T08:41:56.926Z,83.5096
2019-04-11T08:43:00.191Z,83.8300
2019-04-11T08:44:03.652Z,81.8616
2019-04-11T08:45:06.197Z,82.9923
2019-04-11T08:46:09.197Z,82.4857
2019-04-11T08:47:12.190Z,81.2772
2019-04-11T08:48:15.023Z,82.6581
2019-04-11T08:49:18.427Z,83.5462
2019-04-11T08:50:20.671Z,82.0966
2019-04-11T08:51:23.316Z,81.2680
2019-04-11T08:52:26.215Z,83.3951
2019-04-11T08:53:29.201Z,81.9303
2019-04-11T08:54:33.291Z,81.5778
2019-04-11T08:55:45.561Z,82.0005
2019-04-11T08:56:45.379Z,83.4241
2019-04-11T08:57:48.206Z,82.1134
2019-04-11T08:58:51.202Z,82.1973
2019-04-11T08:59:54.166Z,82.0142
2019-04-11T09:01:00.151Z,82.1500
2019-04-11T09:02:04.523Z,81.9898
2019-04-11T09:03:07.288Z,81.9593
2019-04-11T09:04:11.911Z,83.4913
2019-04-11T09:05:18.771Z,81.2680
2019-04-11T09:06:23.211Z,81.9821
2019-04-11T09:07:27.506Z,83.1998
2019-04-11T09:08:32.253Z,81.0483
2019-04-11T09:09:36.277Z,81.4328
2019-04-11T09:10:40.058Z,81.4420
2019-04-11T09:11:43.243Z,82.3941
2019-04-11T09:12:46.820Z,82.0783
2019-04-11T09:13:49.465Z,82.2965
2019-04-11T09:14:52.666Z,83.0259
2019-04-11T09:15:55.201Z,83.6439
2019-04-11T09:16:58.357Z,81.7533
2019-04-11T09:18:04.707Z,82.5772
2019-04-11T09:19:10.403Z,82.6307
2019-04-11T09:20:13.597Z,82.2232
2019-04-11T09:21:16.210Z,82.3163
2019-04-11T09:22:19.220Z,81.7624
2019-04-11T09:23:22.173Z,82.5986
2019-04-11T09:24:26.265Z,82.4842
2019-04-11T09:25:30.478Z,83.2486
2019-04-11T09:26:34.205Z,81.5045
2019-04-11T09:27:38.408Z,83.6423
2019-04-11T09:28:41.842Z,80.8011
2019-04-11T09:29:46.231Z,83.7034
2019-04-11T09:30:49.462Z,81.4374
2019-04-11T09:31:52.202Z,80.3738
2019-04-11T09:32:56.208Z,81.9852
2019-04-11T09:33:59.543Z,82.9694
2019-04-11T09:35:02.253Z,80.4562
2019-04-11T09:36:05.895Z,80.0366
2019-04-11T09:37:09.433Z,80.3372
2019-04-11T09:38:13.928Z,80.3006
2019-04-11T09:39:17.180Z,81.0193
2019-04-11T09:40:20.416Z,81.2543
2019-04-11T09:41:24.797Z,80.5905
2019-04-11T09:42:28.295Z,80.7172
2019-04-11T09:43:31.780Z,80.3876
2019-04-11T09:44:34.982Z,81.5915
2019-04-11T09:45:38.203Z,81.1627
2019-04-11T09:46:41.192Z,81.7395
2019-04-11T09:47:45.616Z,80.8377
2019-04-11T09:48:48.417Z,81.7533
2019-04-11T09:49:51.586Z,81.3550
2019-04-11T09:50:54.274Z,81.4130
2019-04-11T09:51:58.225Z,81.9043
2019-04-11T09:53:01.566Z,81.3870
2019-04-11T09:54:04.239Z,81.6663
2019-04-11T09:55:08.564Z,81.4588
2019-04-11T09:56:11.296Z,81.1429
2019-04-11T09:57:14.278Z,82.8977
2019-04-11T09:58:17.481Z,81.9501
2019-04-11T09:59:20.965Z,80.1968
2019-04-11T10:00:24.269Z,80.1740
2019-04-11T10:01:27.278Z,82.2965
2019-04-11T10:02:31.079Z,81.7975
2019-04-11T10:03:34.593Z,81.0330
2019-04-11T10:04:37.232Z,81.4954
2019-04-11T10:05:57.218Z,80.4608
2019-04-11T10:07:01.275Z,81.0788
2019-04-11T10:08:08.655Z,81.1795
2019-04-11T10:09:13.523Z,80.8957
2019-04-11T10:10:16.910Z,81.7563
2019-04-11T10:11:20.258Z,80.4059
2019-04-11T10:12:24.205Z,80.8637
2019-04-11T10:13:27.334Z,81.0071
2019-04-11T10:14:31.504Z,81.9547
2019-04-11T10:15:35.519Z,81.0849
2019-04-11T10:16:42.281Z,80.9110
2019-04-11T10:17:46.384Z,79.9069
2019-04-11T10:18:56.299Z,79.5788
2019-04-11T10:20:00.251Z,81.9684
2019-04-11T10:21:05.238Z,80.7141
2019-04-11T10:22:08.931Z,80.0916
2019-04-11T10:23:13.777Z,80.9155
2019-04-11T10:24:20.551Z,79.6414
2019-04-11T10:25:23.394Z,82.8870
2019-04-11T10:26:29.727Z,81.0574
2019-04-11T10:27:32.984Z,82.4308
2019-04-11T10:28:37.504Z,80.0458
2019-04-11T10:29:40.364Z,81.1887
2019-04-11T10:30:44.113Z,79.9771
2019-04-11T10:31:48.521Z,80.4562
2019-04-11T10:32:53.548Z,80.5295
2019-04-11T10:34:03.279Z,80.7721
2019-04-11T10:35:08.203Z,81.4786
2019-04-11T10:36:13.273Z,81.3230
2019-04-11T10:37:17.887Z,80.0137
2019-04-11T10:38:22.439Z,80.7553
2019-04-11T10:39:25.346Z,81.4420
2019-04-11T10:40:28.211Z,82.3011
2019-04-11T10:41:32.641Z,81.5244
2019-04-11T10:42:35.273Z,81.0468
2019-04-11T10:43:57.167Z,81.5061
2019-04-11T10:45:00.367Z,81.1582
2019-04-11T10:46:03.239Z,81.2894
2019-04-11T10:47:08.342Z,82.5162
2019-04-11T10:48:12.247Z,82.3835
2019-04-11T10:49:15.196Z,82.4857
2019-04-11T10:50:21.744Z,80.9705
2019-04-11T10:51:26.948Z,81.4420
2019-04-11T10:52:30.827Z,81.3260
2019-04-11T10:53:35.406Z,81.1673
2019-04-11T10:54:42.936Z,81.0437
2019-04-11T10:55:47.676Z,80.8057
2019-04-11T10:56:50.186Z,81.4130
2019-04-11T10:57:54.087Z,81.1307
2019-04-11T10:58:57.431Z,81.7807
2019-04-11T11:00:00.242Z,82.1866
2019-04-11T11:01:03.968Z,80.9232
2019-04-11T11:02:07.172Z,81.7075
2019-04-11T11:03:11.615Z,82.4613
2019-04-11T11:04:18.033Z,82.0584
2019-04-11T11:05:22.160Z,81.4954
2019-04-11T11:06:27.473Z,83.5248
2019-04-11T11:07:30.790Z,82.2141
2019-04-11T11:08:37.591Z,84.0238
2019-04-11T11:09:40.303Z,83.6896
2019-04-11T11:10:45.884Z,82.1927
2019-04-11T11:11:50.547Z,80.7950
2019-04-11T11:14:05.211Z,81.3046
2019-04-11T11:15:09.292Z,81.2314
2019-04-11T11:16:12.305Z,80.3754
2019-04-11T11:17:28.878Z,81.2680
2019-04-11T11:18:42.643Z,80.4440
2019-04-11T11:19:49.784Z,81.5640
2019-04-11T11:20:50.150Z,80.0443
2019-04-11T11:21:51.262Z,80.2014
2019-04-11T11:22:55.957Z,80.9323
2019-04-11T11:23:59.219Z,79.9680
2019-04-11T11:25:02.403Z,80.1038
2019-04-11T11:26:05.211Z,80.0137
2019-04-11T11:27:09.630Z,79.7055
2019-04-11T11:28:16.423Z,80.6394
2019-04-11T11:29:20.470Z,80.9705
2019-04-11T11:30:27.270Z,80.7141
2019-04-11T11:31:30.298Z,79.2203
2019-04-11T11:32:34.199Z,80.2976
2019-04-11T11:33:38.638Z,81.7990
2019-04-11T11:34:41.232Z,79.7742
2019-04-11T11:35:44.322Z,80.5905
2019-04-11T11:36:48.431Z,81.9440
2019-04-11T11:37:53.412Z,82.0005
2019-04-11T11:38:55.189Z,80.3159
2019-04-11T11:40:02.614Z,79.3256
2019-04-11T11:41:08.540Z,79.6658
2019-04-11T11:42:12.290Z,81.4786
2019-04-11T11:43:15.243Z,80.2960
2019-04-11T11:44:19.480Z,80.5524
2019-04-11T11:45:23.587Z,80.7645
2019-04-11T11:46:26.786Z,82.4445
2019-04-11T11:47:35.674Z,80.2289
2019-04-11T11:48:40.193Z,80.0580
2019-04-11T11:49:51.938Z,79.9252
2019-04-11T11:50:51.494Z,81.0376
2019-04-11T11:51:58.059Z,79.8474
2019-04-11T11:53:08.229Z,79.4354
2019-04-11T11:54:11.489Z,80.4334
2019-04-11T11:55:14.187Z,78.9593
2019-04-11T11:56:17.873Z,79.3912
2019-04-11T11:57:20.454Z,78.1903
2019-04-11T11:58:23.677Z,79.9161
2019-04-11T11:59:27.381Z,80.1511
2019-04-11T12:00:31.752Z,79.6063
2019-04-11T12:01:34.220Z,78.5443
2019-04-11T12:02:37.350Z,80.0031
2019-04-11T12:03:42.339Z,77.5769
2019-04-11T12:04:46.661Z,77.5051
2019-04-11T12:05:52.161Z,77.8607
2019-04-11T12:07:03.615Z,78.3337
2019-04-11T12:08:09.619Z,79.9619
2019-04-11T12:09:14.206Z,78.3017
2019-04-11T12:10:17.446Z,78.1353
2019-04-11T12:11:20.174Z,78.8327
2019-04-11T12:12:23.941Z,77.3495
2019-04-11T12:13:28.311Z,77.8286
2019-04-11T12:14:31.211Z,76.6766
2019-04-11T12:15:35.072Z,78.3841
2019-04-11T12:16:39.703Z,77.8119
2019-04-11T12:17:42.802Z,77.6684
2019-04-11T12:18:49.817Z,76.8399
2019-04-11T12:19:57.442Z,77.3114
2019-04-11T12:21:01.205Z,76.6705
2019-04-11T12:22:04.397Z,77.1832
2019-04-11T12:23:07.210Z,76.2234
2019-04-11T12:24:11.325Z,76.1089
2019-04-11T12:25:14.589Z,76.7681
2019-04-11T12:26:18.299Z,77.8515
2019-04-11T12:27:21.292Z,78.1353
2019-04-11T12:28:25.553Z,76.4187
2019-04-11T12:29:30.210Z,76.6476
2019-04-11T12:30:35.360Z,78.0987
2019-04-11T12:31:38.367Z,77.6516
2019-04-11T12:32:41.225Z,76.3287
2019-04-11T12:33:44.189Z,77.2061
2019-04-11T12:34:47.234Z,76.1456
2019-04-11T12:35:50.777Z,77.9660
2019-04-11T12:36:54.823Z,76.6796
2019-04-11T12:37:59.959Z,77.2351
2019-04-11T12:39:03.244Z,77.7508
2019-04-11T12:40:09.650Z,76.6033
2019-04-11T12:41:21.215Z,78.4619
2019-04-11T12:42:24.185Z,78.6160
2019-04-11T12:43:27.186Z,77.3404
2019-04-11T12:44:30.434Z,77.7142
2019-04-11T12:45:32.200Z,76.3043
2019-04-11T12:46:35.206Z,75.8434
2019-04-11T12:47:39.181Z,77.1206
2019-04-11T12:48:42.184Z,77.3251
2019-04-11T12:49:52.744Z,76.5576
2019-04-11T12:50:53.238Z,76.3104
2019-04-11T12:51:55.497Z,76.6430
2019-04-11T12:52:58.196Z,76.5438
2019-04-11T12:54:01.925Z,75.9213
2019-04-11T12:55:05.225Z,76.4736
2019-04-11T12:56:08.224Z,76.3729
2019-04-11T12:57:12.162Z,76.1318
2019-04-11T12:58:15.201Z,76.5759
2019-04-11T12:59:18.240Z,76.1028
2019-04-11T13:00:22.087Z,75.7733
2019-04-11T13:01:25.212Z,76.3317
2019-04-11T13:02:28.208Z,77.5830
2019-04-11T13:03:32.266Z,76.8078
2019-04-11T13:04:36.282Z,76.7803